createdAt,value
2018-07-21T00:00:55.154Z,99360.47
2018-07-21T00:03:22.816Z,99355.44
2018-07-21T00:05:50.430Z,99361.80
2018-07-21T00:08:19.354Z,99368.58
2018-07-21T00:10:48.268Z,99372.14
2018-07-21T00:13:15.898Z,99368.92
2018-07-21T00:15:43.847Z,99371.83
2018-07-21T00:18:11.472Z,99374.43
2018-07-21T00:20:39.123Z,99370.68
2018-07-21T00:23:07.970Z,99371.50
2018-07-21T00:25:36.098Z,99370.57
2018-07-21T00:28:04.510Z,99368.80
2018-07-21T00:30:33.866Z,99373.05
2018-07-21T00:33:01.500Z,99362.91
2018-07-21T00:35:29.129Z,99368.84
2018-07-21T00:37:57.044Z,99365.09
2018-07-21T00:40:24.659Z,99362.61
2018-07-21T00:42:52.290Z,99363.96
2018-07-21T00:45:19.921Z,99363.73
2018-07-21T00:47:48.807Z,99368.53
2018-07-21T00:50:17.026Z,99367.57
2018-07-21T00:52:44.627Z,99367.45
2018-07-21T00:55:15.145Z,99368.88
2018-07-21T00:57:43.019Z,99370.54
2018-07-21T01:00:11.259Z,99363.34
2018-07-21T01:02:38.872Z,99363.03
2018-07-21T01:05:07.471Z,99369.27
2018-07-21T01:07:35.383Z,99369.92
2018-07-21T01:10:03.648Z,99379.52
2018-07-21T01:12:31.308Z,99376.50
2018-07-21T01:14:58.984Z,99371.41
2018-07-21T01:17:26.982Z,99370.90
2018-07-21T01:19:54.626Z,99369.58
2018-07-21T01:22:22.226Z,99370.39
2018-07-21T01:24:49.964Z,99370.66
2018-07-21T01:27:17.972Z,99368.17
2018-07-21T01:29:45.602Z,99370.45
2018-07-21T01:32:13.235Z,99367.35
2018-07-21T01:34:42.179Z,99367.12
2018-07-21T01:37:10.177Z,99356.92
2018-07-21T01:39:37.793Z,99361.30
2018-07-21T01:42:05.899Z,99357.23
2018-07-21T01:44:34.080Z,99360.23
2018-07-21T01:47:02.626Z,99363.80
2018-07-21T01:49:30.215Z,99369.77
2018-07-21T01:51:58.521Z,99365.28
2018-07-21T01:54:26.420Z,99361.56
2018-07-21T01:56:54.095Z,99359.15
2018-07-21T01:59:21.722Z,99352.75
2018-07-21T02:01:50.496Z,99357.62
2018-07-21T02:04:18.351Z,99358.42
2018-07-21T02:06:46.032Z,99355.34
2018-07-21T02:09:13.663Z,99362.22
2018-07-21T02:11:41.355Z,99360.28
2018-07-21T02:14:09.755Z,99360.63
2018-07-21T02:16:37.421Z,99362.27
2018-07-21T02:19:05.343Z,99364.03
2018-07-21T02:21:33.995Z,99357.14
2018-07-21T02:24:01.651Z,99351.92
2018-07-21T02:26:29.268Z,99342.14
2018-07-21T02:28:58.071Z,99340.06
2018-07-21T02:31:25.960Z,99343.39
2018-07-21T02:33:53.589Z,99343.08
2018-07-21T02:36:21.219Z,99339.02
2018-07-21T02:38:49.132Z,99329.24
2018-07-21T02:41:17.580Z,99323.62
2018-07-21T02:43:45.731Z,99325.94
2018-07-21T02:46:13.347Z,99322.67
2018-07-21T02:48:41.263Z,99318.58
2018-07-21T02:51:08.880Z,99318.30
2018-07-21T02:53:36.545Z,99322.13
2018-07-21T02:56:05.168Z,99316.27
2018-07-21T02:58:33.133Z,99312.78
2018-07-21T03:01:00.785Z,99318.28
2018-07-21T03:03:28.424Z,99320.72
2018-07-21T03:05:56.067Z,99324.33
2018-07-21T03:08:24.244Z,99327.25
2018-07-21T03:10:51.872Z,99333.92
2018-07-21T03:13:19.493Z,99336.27
2018-07-21T03:15:47.379Z,99336.58
2018-07-21T03:18:15.068Z,99336.53
2018-07-21T03:20:42.687Z,99334.41
2018-07-21T03:23:11.527Z,99326.17
2018-07-21T03:25:39.161Z,99322.80
2018-07-21T03:28:06.779Z,99321.27
2018-07-21T03:30:34.427Z,99322.13
2018-07-21T03:33:02.330Z,99316.91
2018-07-21T03:35:29.931Z,99308.17
2018-07-21T03:37:57.639Z,99312.53
2018-07-21T03:40:25.375Z,99305.47
2018-07-21T03:42:53.011Z,99307.95
2018-07-21T03:45:20.660Z,99310.47
2018-07-21T03:47:48.521Z,99315.55
2018-07-21T03:50:16.476Z,99319.55
2018-07-21T03:52:44.201Z,99324.05
2018-07-21T03:55:11.906Z,99322.92
2018-07-21T03:57:39.557Z,99323.11
2018-07-21T04:00:07.440Z,99322.26
2018-07-21T04:02:35.039Z,99320.59
2018-07-21T04:05:02.678Z,99328.33
2018-07-21T04:07:30.427Z,99322.56
2018-07-21T04:09:58.313Z,99323.52
2018-07-21T04:12:26.001Z,99320.63
2018-07-21T04:14:53.687Z,99321.27
2018-07-21T04:17:26.891Z,99325.31
2018-07-21T04:19:56.490Z,99324.69
2018-07-21T04:22:26.115Z,99321.84
2018-07-21T04:24:54.405Z,99321.34
2018-07-21T04:27:23.517Z,99313.56
2018-07-21T04:29:51.541Z,99316.58
2018-07-21T04:32:19.921Z,99315.87
2018-07-21T04:34:47.547Z,99307.58
2018-07-21T04:37:15.445Z,99305.02
2018-07-21T04:39:43.642Z,99308.67
2018-07-21T04:42:11.878Z,99311.38
2018-07-21T04:44:39.683Z,99301.73
2018-07-21T04:47:08.216Z,99301.55
2018-07-21T04:49:35.851Z,99312.80
2018-07-21T04:52:03.765Z,99307.14
2018-07-21T04:54:31.653Z,99312.14
2018-07-21T04:56:59.284Z,99321.23
2018-07-21T04:59:26.898Z,99315.47
2018-07-21T05:01:55.141Z,99325.33
2018-07-21T05:04:23.044Z,99320.01
2018-07-21T05:06:50.685Z,99323.39
2018-07-21T05:09:18.724Z,99324.11
2018-07-21T05:11:46.609Z,99328.66
2018-07-21T05:14:14.223Z,99335.55
2018-07-21T05:16:41.847Z,99335.18
2018-07-21T05:19:09.491Z,99341.22
2018-07-21T05:21:38.552Z,99336.84
2018-07-21T05:24:06.453Z,99329.64
2018-07-21T05:26:34.137Z,99332.66
2018-07-21T05:29:04.760Z,99328.74
2018-07-21T05:31:32.804Z,99333.38
2018-07-21T05:34:00.486Z,99336.58
2018-07-21T05:36:28.127Z,99340.50
2018-07-21T05:38:55.745Z,99332.44
2018-07-21T05:41:23.659Z,99337.37
2018-07-21T05:43:51.292Z,99340.03
2018-07-21T05:46:18.958Z,99349.41
2018-07-21T05:48:46.555Z,99338.91
2018-07-21T05:51:14.576Z,99344.38
2018-07-21T05:53:42.220Z,99347.69
2018-07-21T05:56:09.841Z,99353.77
2018-07-21T05:58:37.804Z,99356.00
2018-07-21T06:01:05.463Z,99357.42
2018-07-21T06:03:33.099Z,99363.05
2018-07-21T06:06:01.002Z,99373.41
2018-07-21T06:08:29.314Z,99378.34
2018-07-21T06:10:56.966Z,99369.94
2018-07-21T06:13:28.495Z,99379.66
2018-07-21T06:15:56.234Z,99379.31
2018-07-21T06:18:23.911Z,99378.41
2018-07-21T06:20:51.853Z,99385.33
2018-07-21T06:23:19.486Z,99387.52
2018-07-21T06:25:47.135Z,99386.30
2018-07-21T06:28:15.031Z,99394.13
2018-07-21T06:30:42.661Z,99406.67
2018-07-21T06:33:10.295Z,99410.94
2018-07-21T06:35:38.252Z,99412.42
2018-07-21T06:38:05.890Z,99413.41
2018-07-21T06:40:33.530Z,99418.12
2018-07-21T06:43:02.102Z,99414.61
2018-07-21T06:45:29.819Z,99415.46
2018-07-21T06:47:57.467Z,99426.77
2018-07-21T06:50:25.380Z,99426.77
2018-07-21T06:52:53.029Z,99424.70
2018-07-21T06:55:20.660Z,99416.48
2018-07-21T06:57:48.633Z,99412.32
2018-07-21T07:00:16.323Z,99418.27
2018-07-21T07:02:43.984Z,99414.70
2018-07-21T07:05:11.997Z,99422.47
2018-07-21T07:07:39.614Z,99424.76
2018-07-21T07:10:07.686Z,99419.52
2018-07-21T07:12:35.622Z,99420.54
2018-07-21T07:15:03.263Z,99428.08
2018-07-21T07:17:31.916Z,99422.83
2018-07-21T07:19:59.854Z,99425.95
2018-07-21T07:22:27.479Z,99430.64
2018-07-21T07:24:55.076Z,99433.05
2018-07-21T07:27:22.963Z,99428.16
2018-07-21T07:29:50.628Z,99430.23
2018-07-21T07:32:18.285Z,99428.23
2018-07-21T07:34:47.817Z,99420.06
2018-07-21T07:37:15.695Z,99414.39
2018-07-21T07:39:43.283Z,99417.20
2018-07-21T07:42:11.969Z,99415.54
2018-07-21T07:44:40.584Z,99413.73
2018-07-21T07:47:08.250Z,99408.84
2018-07-21T07:49:36.171Z,99405.59
2018-07-21T07:52:03.867Z,99412.38
2018-07-21T07:54:31.600Z,99408.61
2018-07-21T07:57:00.313Z,99400.16
2018-07-21T07:59:28.626Z,99406.95
2018-07-21T08:01:56.312Z,99399.34
2018-07-21T08:04:24.259Z,99401.72
2018-07-21T08:06:51.879Z,99408.00
2018-07-21T08:09:19.544Z,99403.31
2018-07-21T08:11:47.458Z,99399.85
2018-07-21T08:14:15.172Z,99406.64
2018-07-21T08:16:42.772Z,99394.52
2018-07-21T08:19:10.727Z,99399.09
2018-07-21T08:21:38.998Z,99394.47
2018-07-21T08:24:06.648Z,99392.25
2018-07-21T08:26:34.560Z,99390.64
2018-07-21T08:29:03.501Z,99389.63
2018-07-21T08:31:31.109Z,99394.40
2018-07-21T08:33:59.024Z,99401.84
2018-07-21T08:36:26.627Z,99402.61
2018-07-21T08:38:54.279Z,99401.44
2018-07-21T08:41:22.198Z,99402.36
2018-07-21T08:43:50.427Z,99405.23
2018-07-21T08:46:18.070Z,99404.98
2018-07-21T08:48:46.023Z,99407.40
2018-07-21T08:51:14.370Z,99410.89
2018-07-21T08:53:42.027Z,99402.24
2018-07-21T08:56:10.028Z,99410.28
2018-07-21T08:58:37.654Z,99408.97
2018-07-21T09:01:05.299Z,99409.35
2018-07-21T09:03:34.684Z,99410.28
2018-07-21T09:06:02.470Z,99411.47
2018-07-21T09:08:30.887Z,99413.68
2018-07-21T09:10:58.831Z,99410.73
2018-07-21T09:13:26.460Z,99414.66
2018-07-21T09:15:54.140Z,99412.34
2018-07-21T09:18:23.413Z,99416.28
2018-07-21T09:20:52.975Z,99411.88
2018-07-21T09:25:57.099Z,99413.57
2018-07-21T09:28:25.684Z,99416.20
2018-07-21T09:30:54.596Z,99414.28
2018-07-21T09:33:23.061Z,99416.76
2018-07-21T09:35:50.685Z,99425.75
2018-07-21T09:38:18.340Z,99424.66
2018-07-21T09:40:46.560Z,99426.17
2018-07-21T09:43:14.219Z,99419.84
2018-07-21T09:45:41.867Z,99417.95
2018-07-21T09:48:11.705Z,99418.88
2018-07-21T09:50:39.551Z,99413.50
2018-07-21T09:53:07.259Z,99424.50
2018-07-21T09:55:36.202Z,99426.99
2018-07-21T09:58:03.865Z,99422.74
2018-07-21T10:00:36.415Z,99414.52
2018-07-21T10:03:05.192Z,99420.75
2018-07-21T10:05:36.397Z,99422.20
2018-07-21T10:08:06.388Z,99425.80
2018-07-21T10:10:34.266Z,99427.70
2018-07-21T10:13:01.900Z,99424.88
2018-07-21T10:15:29.600Z,99421.29
2018-07-21T10:17:58.056Z,99423.95
2018-07-21T10:20:25.709Z,99424.34
2018-07-21T10:22:53.307Z,99423.13
2018-07-21T10:25:26.111Z,99427.38
2018-07-21T10:27:59.342Z,99421.77
2018-07-21T10:30:27.253Z,99428.39
2018-07-21T10:32:54.881Z,99422.98
2018-07-21T10:35:22.538Z,99427.20
2018-07-21T10:37:52.434Z,99423.19
2018-07-21T10:40:20.766Z,99427.61
2018-07-21T10:42:48.460Z,99427.81
2018-07-21T10:45:16.392Z,99423.92
2018-07-21T10:47:44.303Z,99421.53
2018-07-21T10:50:12.589Z,99422.22
2018-07-21T10:52:41.690Z,99406.76
2018-07-21T10:55:10.328Z,99415.38
2018-07-21T10:57:38.000Z,99404.38
2018-07-21T11:00:07.411Z,99419.52
2018-07-21T11:02:35.108Z,99411.09
2018-07-21T11:05:02.758Z,99405.76
2018-07-21T11:07:31.304Z,99399.45
2018-07-21T11:09:59.098Z,99394.67
2018-07-21T11:12:28.680Z,99397.16
2018-07-21T11:14:56.590Z,99395.44
2018-07-21T11:17:26.271Z,99399.31
2018-07-21T11:19:55.507Z,99400.16
2018-07-21T11:22:26.067Z,99403.22
2018-07-21T11:24:54.659Z,99394.94
2018-07-21T11:27:23.530Z,99397.73
2018-07-21T11:29:58.839Z,99396.08
2018-07-21T11:32:27.359Z,99397.16
2018-07-21T11:34:55.635Z,99398.81
2018-07-21T11:37:23.650Z,99396.24
2018-07-21T11:39:51.859Z,99396.24
2018-07-21T11:42:19.496Z,99399.27
2018-07-21T11:44:47.374Z,99391.88
2018-07-21T11:47:14.974Z,99400.45
2018-07-21T11:49:42.567Z,99398.04
2018-07-21T11:52:10.498Z,99398.23
2018-07-21T11:54:38.823Z,99401.13
2018-07-21T11:57:06.468Z,99403.22
2018-07-21T11:59:34.425Z,99408.85
2018-07-21T12:02:02.616Z,99404.52
2018-07-21T12:04:31.252Z,99407.02
2018-07-21T12:06:59.324Z,99407.59
2018-07-21T12:09:27.617Z,99407.86
2018-07-21T12:11:56.577Z,99404.50
2018-07-21T12:14:24.454Z,99397.64
2018-07-21T12:16:52.097Z,99407.73
2018-07-21T12:19:19.746Z,99405.20
2018-07-21T12:21:47.651Z,99406.19
2018-07-21T12:24:15.287Z,99397.84
2018-07-21T12:26:44.117Z,99394.06
2018-07-21T12:29:12.652Z,99394.70
2018-07-21T12:31:41.283Z,99396.97
2018-07-21T12:34:10.516Z,99398.97
2018-07-21T12:39:14.590Z,99396.31
2018-07-21T12:41:42.218Z,99398.50
2018-07-21T12:44:10.144Z,99390.10
2018-07-21T12:46:37.763Z,99396.13
2018-07-21T12:49:05.417Z,99392.28
2018-07-21T12:51:36.053Z,99386.89
2018-07-21T12:56:38.654Z,99395.13
2018-07-21T12:59:07.345Z,99395.88
2018-07-21T13:01:36.903Z,99397.70
2018-07-21T13:04:04.556Z,99391.02
2018-07-21T13:06:34.574Z,99395.81
2018-07-21T13:09:05.256Z,99398.27
2018-07-21T13:11:32.880Z,99397.70
2018-07-21T13:14:02.278Z,99403.45
2018-07-21T13:16:29.924Z,99395.08
2018-07-21T13:18:57.588Z,99400.21
2018-07-21T13:21:26.163Z,99399.46
2018-07-21T13:23:53.952Z,99403.19
2018-07-21T13:26:21.597Z,99393.03
2018-07-21T13:28:49.549Z,99390.38
2018-07-21T13:31:17.180Z,99400.39
2018-07-21T13:33:44.847Z,99402.09
2018-07-21T13:36:12.734Z,99394.84
2018-07-21T13:38:40.343Z,99396.72
2018-07-21T13:41:09.412Z,99394.96
2018-07-21T13:43:37.585Z,99392.92
2018-07-21T13:46:05.201Z,99396.83
2018-07-21T13:48:32.786Z,99391.23
2018-07-21T13:51:02.241Z,99389.50
2018-07-21T13:53:30.471Z,99388.09
2018-07-21T13:55:58.116Z,99384.86
2018-07-21T13:58:26.111Z,99383.48
2018-07-21T14:00:54.684Z,99385.66
2018-07-21T14:03:22.367Z,99383.66
2018-07-21T14:05:51.829Z,99380.18
2018-07-21T14:08:19.437Z,99378.67
2018-07-21T14:10:47.908Z,99380.57
2018-07-21T14:13:15.823Z,99379.05
2018-07-21T14:15:44.397Z,99381.36
2018-07-21T14:18:12.056Z,99376.83
2018-07-21T14:20:39.959Z,99375.69
2018-07-21T14:23:07.620Z,99372.00
2018-07-21T14:25:35.237Z,99364.12
2018-07-21T14:28:03.367Z,99366.11
2018-07-21T14:30:30.998Z,99364.75
2018-07-21T14:32:58.605Z,99363.08
2018-07-21T14:35:26.570Z,99366.63
2018-07-21T14:37:55.906Z,99362.30
2018-07-21T14:40:23.583Z,99362.30
2018-07-21T14:42:51.534Z,99363.28
2018-07-21T14:45:21.358Z,99366.55
2018-07-21T14:50:27.360Z,99377.13
2018-07-21T14:52:55.920Z,99379.66
2018-07-21T14:55:23.621Z,99387.41
2018-07-21T14:57:54.803Z,99386.70
2018-07-21T15:00:22.553Z,99387.00
2018-07-21T15:02:50.204Z,99384.50
2018-07-21T15:05:18.702Z,99383.09
2018-07-21T15:07:46.859Z,99387.12
2018-07-21T15:10:14.471Z,99391.91
2018-07-21T15:12:43.548Z,99394.41
2018-07-21T15:15:11.197Z,99403.26
2018-07-21T15:17:40.294Z,99407.33
2018-07-21T15:20:08.216Z,99400.77
2018-07-21T15:22:37.431Z,99407.70
2018-07-21T15:25:05.060Z,99413.09
2018-07-21T15:27:34.954Z,99412.27
2018-07-21T15:30:03.201Z,99412.85
2018-07-21T15:32:32.229Z,99420.04
2018-07-21T15:35:01.748Z,99429.47
2018-07-21T15:37:30.034Z,99433.14
2018-07-21T15:39:57.650Z,99439.54
2018-07-21T15:42:25.527Z,99440.77
2018-07-21T15:44:53.136Z,99443.69
2018-07-21T15:47:20.787Z,99448.72
2018-07-21T15:49:49.410Z,99447.34
2018-07-21T15:52:17.058Z,99454.25
2018-07-21T15:54:44.712Z,99452.63
2018-07-21T15:57:15.577Z,99455.98
2018-07-21T15:59:43.197Z,99458.78
2018-07-21T16:02:10.799Z,99459.08
2018-07-21T16:04:38.678Z,99460.95
2018-07-21T16:07:06.336Z,99464.77
2018-07-21T16:09:33.984Z,99468.48
2018-07-21T16:12:01.899Z,99461.14
2018-07-21T16:14:29.490Z,99458.41
2018-07-21T16:16:57.908Z,99454.70
2018-07-21T16:19:29.408Z,99455.70
2018-07-21T16:21:57.034Z,99457.02
2018-07-21T16:24:24.660Z,99454.73
2018-07-21T16:26:52.603Z,99446.44
2018-07-21T16:29:21.009Z,99449.25
2018-07-21T16:31:48.658Z,99445.04
2018-07-21T16:34:16.542Z,99445.41
2018-07-21T16:36:44.188Z,99447.15
2018-07-21T16:39:12.703Z,99445.34
2018-07-21T16:41:43.652Z,99442.72
2018-07-21T16:44:11.338Z,99433.02
2018-07-21T16:46:38.963Z,99431.28
2018-07-21T16:49:10.597Z,99424.16
2018-07-21T16:51:38.466Z,99426.59
2018-07-21T16:54:06.919Z,99422.20
2018-07-21T16:56:34.566Z,99420.84
2018-07-21T16:59:03.351Z,99422.20
2018-07-21T17:01:31.219Z,99423.49
2018-07-21T17:03:59.714Z,99423.20
2018-07-21T17:06:27.316Z,99419.88
2018-07-21T17:08:55.202Z,99418.22
2018-07-21T17:11:24.508Z,99409.41
2018-07-21T17:13:52.144Z,99409.11
2018-07-21T17:16:20.567Z,99411.06
2018-07-21T17:18:48.393Z,99408.34
2018-07-21T17:21:16.776Z,99406.75
2018-07-21T17:23:45.975Z,99407.05
2018-07-21T17:26:14.261Z,99399.42
2018-07-21T17:28:41.947Z,99399.05
2018-07-21T17:31:10.577Z,99404.42
2018-07-21T17:33:39.397Z,99399.96
2018-07-21T17:36:08.651Z,99389.75
2018-07-21T17:38:36.608Z,99392.91
2018-07-21T17:41:05.331Z,99387.41
2018-07-21T17:43:32.958Z,99393.09
2018-07-21T17:46:00.881Z,99387.86
2018-07-21T17:48:28.525Z,99387.78
2018-07-21T17:50:56.150Z,99386.34
2018-07-21T17:53:24.059Z,99385.15
2018-07-21T17:55:51.662Z,99383.71
2018-07-21T17:58:20.867Z,99382.48
2018-07-21T18:00:50.380Z,99385.13
2018-07-21T18:03:18.056Z,99389.44
2018-07-21T18:05:45.818Z,99392.94
2018-07-21T18:08:14.549Z,99393.16
2018-07-21T18:10:42.910Z,99395.80
2018-07-21T18:13:11.097Z,99393.33
2018-07-21T18:15:39.676Z,99392.70
2018-07-21T18:18:07.332Z,99388.02
2018-07-21T18:20:35.817Z,99388.78
2018-07-21T18:23:03.783Z,99384.83
2018-07-21T18:25:31.521Z,99383.39
2018-07-21T18:27:59.703Z,99378.92
2018-07-21T18:30:29.842Z,99379.91
2018-07-21T18:32:57.498Z,99390.13
2018-07-21T18:35:25.096Z,99396.04
2018-07-21T18:37:54.466Z,99391.27
2018-07-21T18:40:22.166Z,99391.78
2018-07-21T18:42:50.010Z,99394.13
2018-07-21T18:45:20.973Z,99401.19
2018-07-21T18:47:48.638Z,99395.05
2018-07-21T18:50:16.255Z,99394.97
2018-07-21T18:52:44.175Z,99390.20
2018-07-21T18:55:12.159Z,99388.16
2018-07-21T18:57:41.243Z,99386.67
2018-07-21T19:00:11.126Z,99391.73
2018-07-21T19:02:38.766Z,99388.38
2018-07-21T19:05:06.436Z,99397.02
2018-07-21T19:07:35.351Z,99399.89
2018-07-21T19:10:03.750Z,99397.30
2018-07-21T19:12:36.602Z,99401.84
2018-07-21T19:15:04.574Z,99402.18
2018-07-21T19:17:32.234Z,99404.52
2018-07-21T19:20:04.810Z,99401.64
2018-07-21T19:22:35.243Z,99410.23
2018-07-21T19:25:07.676Z,99409.33
2018-07-21T19:27:35.405Z,99412.50
2018-07-21T19:30:03.947Z,99418.67
2018-07-21T19:32:36.661Z,99421.55
2018-07-21T19:35:04.382Z,99432.85
2018-07-21T19:37:37.439Z,99435.42
2018-07-21T19:40:05.400Z,99446.63
2018-07-21T19:42:33.915Z,99454.09
2018-07-21T19:45:02.445Z,99466.86
2018-07-21T19:47:30.121Z,99462.31
2018-07-21T19:49:57.976Z,99472.70
2018-07-21T19:52:26.460Z,99473.77
2018-07-21T19:54:56.085Z,99477.14
2018-07-21T19:57:24.446Z,99479.28
2018-07-21T19:59:52.569Z,99480.65
2018-07-21T20:02:20.235Z,99475.77
2018-07-21T20:04:47.922Z,99481.34
2018-07-21T20:07:15.889Z,99478.72
2018-07-21T20:09:43.618Z,99478.11
2018-07-21T20:12:12.240Z,99482.63
2018-07-21T20:14:41.364Z,99485.23
2018-07-21T20:17:10.670Z,99485.64
2018-07-21T20:19:38.375Z,99487.92
2018-07-21T20:22:08.603Z,99484.72
2018-07-21T20:24:36.540Z,99487.53
2018-07-21T20:27:04.159Z,99497.48
2018-07-21T20:29:33.922Z,99498.94
2018-07-21T20:32:01.556Z,99498.52
2018-07-21T20:34:32.600Z,99501.13
2018-07-21T20:37:00.470Z,99497.50
2018-07-21T20:39:28.553Z,99491.34
2018-07-21T20:41:57.197Z,99490.19
2018-07-21T20:44:28.834Z,99492.28
2018-07-21T20:46:56.478Z,99490.31
2018-07-21T20:49:27.250Z,99492.38
2018-07-21T20:51:56.157Z,99486.33
2018-07-21T20:54:24.589Z,99490.30
2018-07-21T20:56:53.449Z,99487.16
2018-07-21T20:59:25.977Z,99489.77
2018-07-21T21:01:53.851Z,99491.56
2018-07-21T21:04:23.657Z,99490.71
2018-07-21T21:06:51.655Z,99491.77
2018-07-21T21:09:19.467Z,99491.14
2018-07-21T21:11:48.349Z,99489.48
2018-07-21T21:14:17.670Z,99488.43
2018-07-21T21:16:46.359Z,99488.63
2018-07-21T21:19:15.209Z,99494.40
2018-07-21T21:21:44.231Z,99491.45
2018-07-21T21:24:14.672Z,99491.45
2018-07-21T21:26:43.427Z,99488.73
2018-07-21T21:29:16.111Z,99482.18
2018-07-21T21:31:43.748Z,99478.31
2018-07-21T21:34:11.407Z,99488.32
2018-07-21T21:36:39.919Z,99484.55
2018-07-21T21:39:07.565Z,99484.90
2018-07-21T21:41:35.240Z,99484.55
2018-07-21T21:44:03.916Z,99479.87
2018-07-21T21:46:32.470Z,99484.38
2018-07-21T21:49:00.961Z,99487.17
2018-07-21T21:51:30.072Z,99487.80
2018-07-21T21:53:57.714Z,99486.53
2018-07-21T21:56:25.345Z,99490.38
2018-07-21T21:58:57.038Z,99489.96
2018-07-21T22:01:25.073Z,99488.38
2018-07-21T22:03:52.676Z,99490.05
2018-07-21T22:06:20.575Z,99491.18
2018-07-21T22:08:49.199Z,99490.67
2018-07-21T22:11:16.831Z,99504.63
2018-07-21T22:13:46.181Z,99497.42
2018-07-21T22:16:13.770Z,99500.56
2018-07-21T22:18:46.071Z,99500.13
2018-07-21T22:21:14.020Z,99499.90
2018-07-21T22:23:41.641Z,99500.40
2018-07-21T22:26:11.224Z,99507.17
2018-07-21T22:28:39.991Z,99511.23
2018-07-21T22:31:07.633Z,99511.69
2018-07-21T22:33:35.918Z,99513.43
2018-07-21T22:36:04.436Z,99514.66
2018-07-21T22:38:34.931Z,99517.91
2018-07-21T22:41:02.586Z,99519.58
2018-07-21T22:43:31.411Z,99517.59
2018-07-21T22:46:00.474Z,99516.44
2018-07-21T22:48:30.903Z,99519.34
2018-07-21T22:50:58.823Z,99528.01
2018-07-21T22:53:28.425Z,99523.28
2018-07-21T22:55:56.047Z,99530.28
2018-07-21T22:58:23.715Z,99533.30
2018-07-21T23:00:54.241Z,99534.66
2018-07-21T23:03:23.457Z,99536.02
2018-07-21T23:05:51.914Z,99529.75
2018-07-21T23:08:19.555Z,99534.35
2018-07-21T23:10:47.712Z,99532.99
2018-07-21T23:13:16.387Z,99531.64
2018-07-21T23:15:45.694Z,99533.81
2018-07-21T23:18:13.656Z,99531.52
2018-07-21T23:20:44.429Z,99526.28
2018-07-21T23:23:12.072Z,99530.23
2018-07-21T23:25:40.024Z,99535.14
2018-07-21T23:28:07.636Z,99530.77
2018-07-21T23:30:36.092Z,99537.86
2018-07-21T23:33:04.404Z,99534.73
2018-07-21T23:35:32.407Z,99539.45
2018-07-21T23:38:00.039Z,99539.89
2018-07-21T23:40:27.662Z,99533.42
2018-07-21T23:42:55.539Z,99538.97
2018-07-21T23:45:24.271Z,99538.24
2018-07-21T23:47:51.902Z,99540.77
2018-07-21T23:50:19.551Z,99537.09
2018-07-21T23:52:47.467Z,99534.19
2018-07-21T23:55:15.074Z,99532.98
2018-07-21T23:57:44.367Z,99530.28
